Time;durP1;ratioP1;P1;durP2;ratioP2;P2;SDS_P1;SDS_P2;PMS_P1;PMS_P2;Temp;Humidity;BMP_temperature;BMP_pressure;BME280_temperature;BME280_humidity;BME280_pressure;Samples;Min_cycle;Max_cycle;Signal;HPM_P1;HPM_P2
2021/06/24 00:02:17;;;;;;;27.93;6.58;;;;;;;31.86;38.60;99638.25;1761257;79;21061;-50
2021/06/24 00:04:44;;;;;;;36.83;7.20;;;;;;;31.86;38.59;99638.25;1784253;78;21054;-47
2021/06/24 00:07:14;;;;;;;37.42;8.55;;;;;;;31.87;38.58;99635.00;1784416;79;37699;-49
2021/06/24 00:09:43;;;;;;;36.25;7.42;;;;;;;31.84;38.60;99630.27;1781411;78;21053;-46
2021/06/24 00:12:10;;;;;;;40.70;9.10;;;;;;;31.82;38.65;99632.84;1789648;79;21125;-44
2021/06/24 00:14:38;;;;;;;40.33;8.58;;;;;;;31.77;38.72;99626.59;1753548;78;21208;-46
2021/06/24 00:17:05;;;;;;;43.87;7.42;;;;;;;31.67;38.92;99631.48;1770681;79;21608;-46
2021/06/24 00:19:32;;;;;;;45.90;9.03;;;;;;;31.43;39.34;99627.96;1783647;78;21131;-43
2021/06/24 00:22:01;;;;;;;45.17;9.00;;;;;;;31.23;39.77;99634.97;1768611;79;21097;-50
2021/06/24 00:24:28;;;;;;;51.63;8.00;;;;;;;31.04;40.14;99627.66;1780911;79;21133;-50
2021/06/24 00:26:57;;;;;;;56.90;9.55;;;;;;;30.89;40.45;99630.30;1783230;79;21038;-44
2021/06/24 00:29:24;;;;;;;48.13;9.10;;;;;;;30.77;40.76;99626.86;1802212;78;22174;-47
2021/06/24 00:31:52;;;;;;;45.80;9.33;;;;;;;30.67;41.00;99631.16;1778622;79;21105;-51
2021/06/24 00:34:19;;;;;;;48.98;9.63;;;;;;;30.63;41.21;99634.77;1786276;79;21061;-42
2021/06/24 00:36:46;;;;;;;47.20;9.33;;;;;;;30.54;41.46;99634.47;1794125;78;21165;-51
2021/06/24 00:39:13;;;;;;;47.50;9.70;;;;;;;30.43;41.72;99629.44;1776073;79;21527;-50
2021/06/24 00:41:41;;;;;;;52.25;10.18;;;;;;;30.31;42.01;99624.89;1761796;80;21491;-44
2021/06/24 00:44:09;;;;;;;44.63;9.13;;;;;;;30.26;42.12;99625.45;1733829;79;21085;-51
2021/06/24 00:46:37;;;;;;;45.17;9.53;;;;;;;30.27;42.31;99624.41;1764884;79;21552;-42
2021/06/24 00:49:06;;;;;;;53.40;9.58;;;;;;;30.21;42.48;99631.90;1726453;81;21037;-50
2021/06/24 00:51:34;;;;;;;49.80;9.40;;;;;;;30.12;42.72;99626.19;1759688;79;21080;-43
2021/06/24 00:54:03;;;;;;;56.20;9.68;;;;;;;30.05;43.01;99627.94;1757974;80;21061;-50
2021/06/24 00:56:31;;;;;;;53.17;10.28;;;;;;;29.97;43.21;99623.38;1755921;80;21124;-51
2021/06/24 00:59:01;;;;;;;62.17;9.80;;;;;;;29.92;43.38;99625.77;1731191;80;21086;-43
2021/06/24 01:01:28;;;;;;;50.65;9.18;;;;;;;29.86;43.49;99623.75;1765276;80;21155;-50
2021/06/24 01:03:56;;;;;;;59.10;9.50;;;;;;;29.79;43.65;99620.89;1758188;79;21093;-51
2021/06/24 01:06:24;;;;;;;56.20;9.63;;;;;;;29.73;43.85;99622.94;1731915;80;21438;-50
2021/06/24 01:08:53;;;;;;;54.08;9.73;;;;;;;29.70;44.00;99626.00;1755335;79;21591;-50
2021/06/24 01:11:21;;;;;;;51.90;10.35;;;;;;;29.67;44.12;99629.05;1775503;79;21012;-51
2021/06/24 01:13:48;;;;;;;49.30;8.93;;;;;;;29.60;44.27;99627.02;1730509;80;21094;-51
2021/06/24 01:16:15;;;;;;;55.28;9.40;;;;;;;29.57;44.35;99628.75;1732648;80;20980;-46
2021/06/24 01:18:43;;;;;;;52.27;9.68;;;;;;;29.55;44.34;99629.41;1732193;80;21077;-50
2021/06/24 01:21:11;;;;;;;45.67;8.90;;;;;;;29.55;44.39;99629.93;1769485;79;21027;-47
2021/06/24 01:23:41;;;;;;;54.48;9.95;;;;;;;29.53;44.46;99634.17;1767679;80;21058;-43
2021/06/24 01:26:09;;;;;;;55.92;10.18;;;;;;;29.52;44.51;99627.07;1749431;79;21054;-45
2021/06/24 01:28:37;;;;;;;54.85;9.58;;;;;;;29.51;44.47;99630.79;1762492;80;21491;-48
2021/06/24 01:31:05;;;;;;;64.95;10.43;;;;;;;29.56;44.32;99628.41;1762773;79;20999;-42
2021/06/24 01:33:32;;;;;;;55.45;10.15;;;;;;;29.65;44.15;99627.34;1755138;80;21102;-48
2021/06/24 01:36:04;;;;;;;52.03;9.85;;;;;;;29.71;44.13;99635.83;1704098;82;21558;-48
2021/06/24 01:38:33;;;;;;;58.45;9.78;;;;;;;29.69;44.23;99640.08;1722319;78;21094;-43
2021/06/24 01:41:05;;;;;;;47.03;9.10;;;;;;;29.64;44.20;99639.23;1749714;80;21059;-42
2021/06/24 01:43:32;;;;;;;52.23;9.18;;;;;;;29.64;44.29;99632.97;1777290;77;21010;-49
2021/06/24 01:46:00;;;;;;;60.52;10.50;;;;;;;29.62;44.32;99631.78;1776979;79;21061;-40
2021/06/24 01:48:29;;;;;;;58.87;9.78;;;;;;;29.59;44.36;99626.70;1802931;78;21003;-44
2021/06/24 01:51:01;;;;;;;65.80;11.10;;;;;;;29.55;44.40;99626.70;1754132;79;21066;-49
2021/06/24 01:53:29;;;;;;;51.02;10.10;;;;;;;29.50;44.52;99620.95;1767371;78;21089;-50
2021/06/24 01:55:57;;;;;;;61.98;11.30;;;;;;;29.45;44.60;99634.18;1770901;77;21065;-45
2021/06/24 01:58:24;;;;;;;58.08;10.48;;;;;;;29.38;44.68;99629.13;1756091;79;21603;-48
2021/06/24 02:01:10;;;;;;;54.00;10.10;;;;;;;29.33;44.79;99630.15;1762196;78;21058;-48
2021/06/24 02:03:42;;;;;;;63.75;11.28;;;;;;;29.28;44.90;99631.49;1753090;79;21078;-47
2021/06/24 02:06:10;;;;;;;59.45;10.72;;;;;;;29.28;44.95;99634.20;1764926;77;21511;-45
2021/06/24 02:08:38;;;;;;;52.83;9.85;;;;;;;29.27;44.97;99631.17;1751575;78;21063;-48
2021/06/24 02:11:07;;;;;;;57.65;11.43;;;;;;;29.25;45.00;99631.86;1772721;78;21561;-50
2021/06/24 02:13:35;;;;;;;53.23;10.15;;;;;;;29.20;45.11;99628.81;1752044;79;21130;-50
2021/06/24 02:16:06;;;;;;;65.60;10.28;;;;;;;29.18;45.19;99623.22;1768031;78;21149;-42
2021/06/24 02:18:35;;;;;;;65.42;10.28;;;;;;;29.19;45.14;99631.18;1748232;79;21094;-51
2021/06/24 02:21:05;;;;;;;57.50;10.45;;;;;;;29.17;45.15;99630.52;1744788;78;21022;-43
2021/06/24 02:23:37;;;;;;;58.85;10.75;;;;;;;29.15;45.15;99632.52;1770327;78;21010;-40
2021/06/24 02:26:06;;;;;;;61.30;10.15;;;;;;;29.17;45.09;99637.28;1769741;79;20975;-47
2021/06/24 02:28:35;;;;;;;61.68;11.20;;;;;;;29.20;44.99;99641.50;1749994;80;21741;-48
2021/06/24 02:31:16;;;;;;;47.20;9.95;;;;;;;29.27;44.80;99640.66;1767664;79;20954;-49
2021/06/24 02:33:44;;;;;;;54.70;9.83;;;;;;;29.41;44.49;99640.98;1772800;78;21054;-51
2021/06/24 02:36:16;;;;;;;49.45;10.53;;;;;;;29.53;44.19;99637.40;1776411;79;21035;-47
2021/06/24 02:38:43;;;;;;;52.75;9.55;;;;;;;29.64;43.91;99631.62;1776087;77;21016;-51
2021/06/24 02:41:11;;;;;;;62.90;10.13;;;;;;;29.78;43.59;99637.69;1753789;79;21129;-50
2021/06/24 02:43:40;;;;;;;50.50;9.35;;;;;;;29.93;43.24;99636.45;1786673;78;21076;-45
2021/06/24 02:46:08;;;;;;;54.38;10.05;;;;;;;30.09;42.87;99638.75;1783589;78;21003;-48
2021/06/24 02:48:37;;;;;;;50.80;10.05;;;;;;;30.23;42.50;99646.16;1755781;78;21002;-47
2021/06/24 02:51:04;;;;;;;49.00;9.83;;;;;;;30.38;42.16;99640.86;1783489;77;21487;-47
2021/06/24 02:53:35;;;;;;;53.13;10.35;;;;;;;30.54;41.82;99643.97;1789914;78;21061;-44
2021/06/24 02:56:04;;;;;;;45.48;9.33;;;;;;;30.69;41.50;99642.69;1787658;78;22108;-49
2021/06/24 02:58:33;;;;;;;49.93;9.53;;;;;;;30.83;41.16;99639.69;1788307;78;21124;-40
2021/06/24 03:01:05;;;;;;;44.53;8.48;;;;;;;30.97;40.78;99641.66;1730154;79;21097;-50
2021/06/24 03:03:42;;;;;;;47.60;8.43;;;;;;;31.13;40.43;99646.62;1782871;78;21077;-50
2021/06/24 03:06:17;;;;;;;45.80;10.15;;;;;;;31.25;40.15;99641.06;1746860;80;21078;-47
2021/06/24 03:08:44;;;;;;;48.63;9.80;;;;;;;31.41;39.78;99640.91;1775986;79;21036;-50
2021/06/24 03:11:15;;;;;;;42.45;8.65;;;;;;;31.55;39.47;99646.05;1778144;79;21132;-47
2021/06/24 03:13:47;;;;;;;38.90;8.48;;;;;;;31.70;39.19;99650.15;1779226;78;22145;-49
2021/06/24 03:16:15;;;;;;;37.78;8.15;;;;;;;31.82;38.82;99645.91;1778893;79;21034;-50
2021/06/24 03:18:45;;;;;;;43.17;8.43;;;;;;;31.94;38.50;99644.95;1746570;80;22324;-41
2021/06/24 03:21:12;;;;;;;41.23;9.08;;;;;;;32.06;38.19;99645.34;1722883;81;21058;-45
2021/06/24 03:23:40;;;;;;;44.65;8.68;;;;;;;32.16;37.87;99638.22;1747192;80;21453;-50
2021/06/24 03:26:07;;;;;;;45.73;8.55;;;;;;;32.27;37.66;99643.71;1778483;79;21062;-49
2021/06/24 03:28:34;;;;;;;39.80;8.58;;;;;;;32.36;37.47;99639.83;1742232;80;21426;-44
2021/06/24 03:31:03;;;;;;;41.68;7.97;;;;;;;32.48;37.26;99642.39;1772612;79;21145;-46
2021/06/24 03:33:31;;;;;;;46.58;8.15;;;;;;;32.62;36.95;99638.48;1779769;80;21038;-50
2021/06/24 03:35:59;;;;;;;51.90;8.05;;;;;;;32.76;36.65;99645.73;1742537;80;21069;-48
2021/06/24 03:38:29;;;;;;;43.35;8.25;;;;;;;32.88;36.31;99638.72;1769705;79;21069;-41
2021/06/24 03:40:56;;;;;;;42.53;7.80;;;;;;;33.00;36.01;99639.56;1755258;80;21473;-43
2021/06/24 03:43:24;;;;;;;36.20;9.03;;;;;;;33.09;35.87;99632.94;1756363;79;21169;-47
2021/06/24 03:45:52;;;;;;;50.98;8.40;;;;;;;33.18;35.63;99626.32;1713522;81;21165;-50
2021/06/24 03:48:19;;;;;;;38.28;7.83;;;;;;;33.30;35.47;99623.39;1818043;77;21010;-47
2021/06/24 03:50:49;;;;;;;37.20;7.30;;;;;;;33.43;35.26;99629.97;1796301;77;21015;-47
2021/06/24 03:53:18;;;;;;;42.98;7.60;;;;;;;33.54;35.08;99626.70;1785679;77;21510;-46
2021/06/24 03:55:45;;;;;;;40.40;8.48;;;;;;;33.66;34.78;99627.81;1748487;78;21050;-49
2021/06/24 03:58:25;;;;;;;44.48;9.43;;;;;;;33.80;34.51;99627.39;1746992;78;21054;-45
2021/06/24 04:00:53;;;;;;;36.17;8.08;;;;;;;33.94;34.20;99624.73;1814588;77;21020;-50
2021/06/24 04:03:20;;;;;;;39.73;7.90;;;;;;;34.03;33.94;99623.52;1812037;78;21031;-45
2021/06/24 04:05:55;;;;;;;40.73;7.53;;;;;;;34.12;33.78;99620.92;1761891;78;21025;-46
2021/06/24 04:08:23;;;;;;;46.68;8.55;;;;;;;34.15;33.68;99626.52;1800388;77;21184;-54
2021/06/24 04:10:51;;;;;;;42.53;7.00;;;;;;;34.02;34.00;99630.84;1783171;78;21006;-51
2021/06/24 04:13:20;;;;;;;43.30;7.90;;;;;;;33.79;34.42;99628.45;1779527;78;21042;-55
2021/06/24 04:15:49;;;;;;;32.78;6.62;;;;;;;33.54;34.94;99628.56;1774675;80;20991;-52
2021/06/24 04:18:16;;;;;;;39.92;7.00;;;;;;;33.41;35.20;99630.70;1735258;80;21006;-43
2021/06/24 04:20:46;;;;;;;35.52;7.67;;;;;;;33.33;35.59;99629.79;1763357;78;21887;-44
2021/06/24 04:23:12;;;;;;;27.93;6.85;;;;;;;33.35;35.58;99632.84;1797179;77;20959;-46
2021/06/24 04:25:47;;;;;;;38.05;7.50;;;;;;;33.32;35.52;99628.13;1779382;78;21050;-39
2021/06/24 04:28:15;;;;;;;29.12;6.30;;;;;;;33.26;35.20;99627.55;1793066;77;21581;-52
2021/06/24 04:31:03;;;;;;;33.38;6.22;;;;;;;33.11;35.73;99631.69;1791070;77;21107;-45
2021/06/24 04:33:33;;;;;;;31.95;6.90;;;;;;;32.93;36.23;99633.55;1816505;77;21069;-46
2021/06/24 04:36:19;;;;;;;29.92;6.95;;;;;;;32.79;36.41;99634.45;1813972;77;21118;-48
2021/06/24 04:38:48;;;;;;;27.82;5.85;;;;;;;32.61;36.61;99638.11;1813937;78;21548;-40
2021/06/24 04:41:17;;;;;;;30.50;6.15;;;;;;;32.45;36.89;99636.45;1786938;77;21011;-41
2021/06/24 04:43:55;;;;;;;27.02;5.92;;;;;;;32.29;37.19;99628.02;1771337;79;21016;-50
2021/06/24 04:46:25;;;;;;;30.17;6.35;;;;;;;32.16;37.42;99635.00;1745610;80;21027;-43
2021/06/24 04:48:52;;;;;;;34.95;6.22;;;;;;;32.07;37.68;99634.77;1768342;79;21062;-49
2021/06/24 04:51:22;;;;;;;31.75;7.25;;;;;;;32.00;37.95;99639.26;1751951;78;21029;-45
2021/06/24 04:53:51;;;;;;;32.33;7.30;;;;;;;31.93;38.01;99639.17;1766020;78;21065;-43
2021/06/24 04:56:22;;;;;;;37.50;7.08;;;;;;;31.86;38.40;99639.61;1748708;79;21169;-41
2021/06/24 04:58:49;;;;;;;37.55;6.50;;;;;;;31.78;37.85;99636.45;1778987;77;21145;-46
2021/06/24 05:01:34;;;;;;;38.95;6.78;;;;;;;31.63;38.01;99635.61;1778401;77;21037;-45
2021/06/24 05:04:18;;;;;;;28.92;6.20;;;;;;;31.51;37.95;99633.05;1776267;78;21059;-48
2021/06/24 05:06:50;;;;;;;36.17;5.92;;;;;;;31.43;37.69;99636.12;1761165;77;21445;-41
2021/06/24 05:09:23;;;;;;;29.80;5.80;;;;;;;31.38;37.85;99643.16;1734909;78;21050;-48
2021/06/24 05:11:44;;;;;;;32.08;5.67;;;;;;;31.33;37.58;99638.27;1739579;79;21119;-48
2021/06/24 05:14:12;;;;;;;35.83;5.65;;;;;;;31.29;37.50;99645.12;1763026;79;22542;-47
2021/06/24 05:16:40;;;;;;;34.55;6.12;;;;;;;31.23;36.66;99639.05;1774281;79;21543;-49
2021/06/24 05:19:08;;;;;;;38.38;5.87;;;;;;;31.11;36.91;99636.77;1762677;78;21089;-45
2021/06/24 05:21:35;;;;;;;41.33;6.20;;;;;;;30.95;36.80;99639.64;1766807;78;22241;-41
2021/06/24 05:24:04;;;;;;;38.75;6.78;;;;;;;30.77;37.49;99640.44;1780906;77;21846;-40
2021/06/24 05:26:34;;;;;;;45.92;15.08;;;;;;;30.67;38.06;99651.02;1777947;79;21055;-39
2021/06/24 05:29:02;;;;;;;51.10;13.95;;;;;;;30.70;38.14;99653.38;1770100;78;21173;-43
2021/06/24 05:31:31;;;;;;;51.53;12.93;;;;;;;30.75;37.99;99642.81;1740691;79;22222;-44
2021/06/24 05:34:00;;;;;;;46.35;10.45;;;;;;;30.79;38.15;99641.93;1740011;80;21092;-40
2021/06/24 05:36:31;;;;;;;43.40;9.48;;;;;;;30.80;37.52;99641.41;1764686;77;22144;-45
2021/06/24 05:38:58;;;;;;;44.55;8.35;;;;;;;30.75;37.56;99640.09;1745939;80;21061;-43
2021/06/24 05:41:25;;;;;;;34.00;6.83;;;;;;;30.69;37.32;99648.12;1739106;78;21050;-48
2021/06/24 05:43:54;;;;;;;40.35;7.30;;;;;;;30.60;37.58;99650.05;1769981;78;21080;-45
2021/06/24 05:46:21;;;;;;;35.43;6.58;;;;;;;30.53;37.75;99648.56;1768008;78;21050;-43
2021/06/24 05:48:51;;;;;;;37.67;7.25;;;;;;;30.46;37.96;99652.16;1772531;78;21928;-40
2021/06/24 05:51:23;;;;;;;40.67;6.83;;;;;;;30.38;38.32;99655.78;1753695;79;21006;-44
2021/06/24 05:53:52;;;;;;;42.88;6.85;;;;;;;30.36;38.54;99652.38;1757534;78;21070;-44
2021/06/24 05:56:20;;;;;;;39.95;7.83;;;;;;;30.37;38.33;99654.08;1754236;79;22087;-40
2021/06/24 05:58:47;;;;;;;53.60;7.05;;;;;;;30.33;38.48;99648.66;1783397;78;21027;-44
2021/06/24 06:01:16;;;;;;;36.70;6.75;;;;;;;30.29;38.58;99653.57;1736431;78;21125;-39
2021/06/24 06:03:43;;;;;;;36.90;6.83;;;;;;;30.27;38.78;99652.91;1760206;78;21057;-45
2021/06/24 06:06:11;;;;;;;40.75;7.83;;;;;;;30.34;38.82;99651.69;1737475;79;21128;-47
2021/06/24 06:08:39;;;;;;;31.85;7.15;;;;;;;30.45;38.79;99647.77;1752837;79;21038;-40
2021/06/24 06:11:07;;;;;;;43.17;7.00;;;;;;;30.57;38.42;99647.69;1754039;79;21046;-43
2021/06/24 06:13:35;;;;;;;45.45;8.00;;;;;;;30.69;38.30;99643.52;1748869;79;21053;-44
2021/06/24 06:16:04;;;;;;;40.40;7.37;;;;;;;30.82;38.19;99648.88;1745690;79;21494;-45
2021/06/24 06:18:33;;;;;;;32.25;6.30;;;;;;;30.92;38.04;99654.91;1750315;79;22117;-46
2021/06/24 06:21:01;;;;;;;29.98;6.10;;;;;;;31.02;37.90;99646.03;1751883;79;21546;-40
2021/06/24 06:23:30;;;;;;;40.88;7.20;;;;;;;31.09;37.89;99655.13;1753297;79;21536;-41
2021/06/24 06:25:57;;;;;;;32.67;6.97;;;;;;;31.12;38.01;99649.86;1768065;79;21132;-45
2021/06/24 06:28:24;;;;;;;30.00;6.20;;;;;;;31.15;38.01;99645.91;1750857;79;21015;-44
2021/06/24 06:30:52;;;;;;;37.93;5.72;;;;;;;31.13;38.01;99640.66;1758666;80;21011;-43
2021/06/24 06:33:20;;;;;;;35.50;6.70;;;;;;;31.10;37.91;99635.59;1772358;79;21098;-46
2021/06/24 06:35:49;;;;;;;31.27;7.22;;;;;;;31.06;37.84;99636.47;1742693;80;21034;-41
2021/06/24 06:38:16;;;;;;;31.25;7.75;;;;;;;31.07;37.98;99640.89;1784955;79;21928;-49
2021/06/24 06:40:44;;;;;;;32.25;6.40;;;;;;;31.08;38.06;99637.13;1746145;81;21060;-46
2021/06/24 06:43:15;;;;;;;32.38;6.72;;;;;;;31.13;38.00;99633.03;1742577;81;21136;-46
2021/06/24 06:45:43;;;;;;;33.85;7.00;;;;;;;31.16;38.04;99627.23;1735889;81;21051;-48
2021/06/24 06:48:10;;;;;;;31.48;6.35;;;;;;;31.21;38.13;99627.52;1756943;79;21067;-41
2021/06/24 06:50:39;;;;;;;34.25;5.90;;;;;;;31.23;38.18;99622.73;1756626;79;21180;-55
2021/06/24 06:53:07;;;;;;;29.52;6.03;;;;;;;31.26;38.05;99616.94;1745298;80;21035;-51
2021/06/24 06:55:36;;;;;;;26.77;5.62;;;;;;;31.30;38.13;99622.32;1758067;80;21732;-42
2021/06/24 06:58:03;;;;;;;27.05;6.00;;;;;;;31.33;38.21;99620.59;1748430;80;22088;-45
2021/06/24 07:00:33;;;;;;;29.77;5.95;;;;;;;31.34;38.27;99615.50;1779025;80;21066;-50
2021/06/24 07:03:01;;;;;;;33.23;5.85;;;;;;;31.36;38.39;99618.03;1764374;80;21144;-41
2021/06/24 07:05:28;;;;;;;28.27;5.67;;;;;;;31.38;38.46;99608.65;1722644;80;21047;-41
2021/06/24 07:07:56;;;;;;;29.35;6.05;;;;;;;31.41;38.51;99612.36;1755468;80;21035;-49
2021/06/24 07:10:23;;;;;;;34.35;6.90;;;;;;;31.43;38.60;99614.89;1719509;81;21066;-43
2021/06/24 07:12:50;;;;;;;34.60;6.85;;;;;;;31.45;38.66;99616.38;1717668;80;21018;-49
2021/06/24 07:15:18;;;;;;;50.30;16.02;;;;;;;31.46;38.65;99620.80;1771445;80;21074;-51
2021/06/24 07:17:46;;;;;;;41.28;15.00;;;;;;;31.47;38.78;99622.50;1733946;80;21039;-50
2021/06/24 07:20:16;;;;;;;45.33;14.40;;;;;;;31.48;38.81;99628.25;1731893;81;21336;-41
2021/06/24 07:22:42;;;;;;;44.05;10.98;;;;;;;31.49;38.77;99636.75;1732636;80;21077;-52
2021/06/24 07:25:18;;;;;;;37.20;9.68;;;;;;;31.51;38.59;99628.96;1757074;78;21067;-45
2021/06/24 07:27:45;;;;;;;40.35;9.58;;;;;;;31.52;38.52;99633.34;1723136;80;21503;-44
2021/06/24 07:30:14;;;;;;;31.48;9.03;;;;;;;31.52;38.64;99633.34;1767340;80;21002;-43
2021/06/24 07:32:42;;;;;;;41.30;7.47;;;;;;;31.52;38.82;99638.79;1767668;79;21029;-41
2021/06/24 07:35:11;;;;;;;36.05;7.60;;;;;;;31.54;38.79;99633.51;1765107;80;20998;-52
2021/06/24 07:37:38;;;;;;;37.40;7.03;;;;;;;31.56;38.77;99637.41;1750431;79;21078;-53
2021/06/24 07:40:07;;;;;;;32.73;7.05;;;;;;;31.59;38.84;99641.08;1760612;79;21136;-47
2021/06/24 07:42:34;;;;;;;36.88;7.15;;;;;;;31.61;38.84;99641.77;1778056;79;21925;-53
2021/06/24 07:45:01;;;;;;;38.08;6.53;;;;;;;31.63;38.69;99648.69;1779142;79;20992;-41
2021/06/24 07:47:28;;;;;;;29.35;6.62;;;;;;;31.67;38.51;99646.44;1760995;79;21086;-50
2021/06/24 07:49:56;;;;;;;34.90;6.85;;;;;;;31.69;38.55;99651.20;1767867;78;21076;-39
2021/06/24 07:52:23;;;;;;;37.98;6.25;;;;;;;31.72;38.58;99650.80;1799452;77;21109;-39
2021/06/24 07:54:49;;;;;;;35.95;7.08;;;;;;;31.77;38.60;99647.52;1772336;79;22080;-44
2021/06/24 07:57:17;;;;;;;50.88;8.73;;;;;;;31.84;38.62;99652.04;1764870;78;21065;-45
2021/06/24 07:59:44;;;;;;;37.05;8.20;;;;;;;31.92;38.69;99648.36;1746763;79;20959;-51
2021/06/24 08:02:12;;;;;;;28.92;6.17;;;;;;;31.99;38.60;99652.53;1767829;79;21000;-43
2021/06/24 08:04:39;;;;;;;30.97;6.40;;;;;;;32.05;38.50;99653.14;1776810;78;22523;-45
2021/06/24 08:07:07;;;;;;;33.75;6.12;;;;;;;32.10;38.29;99649.36;1777151;78;22065;-46
2021/06/24 08:09:34;;;;;;;30.50;5.53;;;;;;;32.16;37.93;99647.25;1773464;78;21402;-45
2021/06/24 08:12:01;;;;;;;32.05;5.67;;;;;;;32.21;37.78;99644.80;1774700;79;21583;-46
2021/06/24 08:14:28;;;;;;;27.22;6.03;;;;;;;32.28;37.69;99644.02;1775620;79;21054;-48
2021/06/24 08:16:55;;;;;;;31.07;5.83;;;;;;;32.35;37.54;99643.60;1776574;78;21159;-47
2021/06/24 08:19:22;;;;;;;24.18;4.92;;;;;;;32.42;37.50;99647.77;1769409;79;21066;-46
2021/06/24 08:21:48;;;;;;;31.80;5.37;;;;;;;32.48;37.27;99645.61;1723696;80;21004;-47
2021/06/24 08:24:16;;;;;;;27.35;5.37;;;;;;;32.54;37.12;99647.05;1747452;79;21085;-45
2021/06/24 08:26:43;;;;;;;25.92;5.92;;;;;;;32.59;37.16;99647.30;1749396;79;21909;-47
2021/06/24 08:29:10;;;;;;;29.87;6.37;;;;;;;32.66;37.05;99645.22;1776199;79;22449;-47
2021/06/24 08:31:37;;;;;;;31.57;6.28;;;;;;;32.71;36.93;99646.84;1776772;78;21940;-46
2021/06/24 08:34:04;;;;;;;24.10;6.35;;;;;;;32.76;36.89;99642.48;1777060;79;20991;-46
2021/06/24 08:36:31;;;;;;;41.85;8.08;;;;;;;32.82;36.95;99644.97;1774349;79;21042;-47
2021/06/24 08:38:58;;;;;;;31.55;7.33;;;;;;;32.87;36.95;99643.02;1767964;79;21007;-44
2021/06/24 08:41:25;;;;;;;29.67;7.67;;;;;;;32.92;36.87;99645.48;1774012;79;21116;-43
2021/06/24 08:43:53;;;;;;;28.23;6.72;;;;;;;32.98;36.74;99648.45;1735852;78;20983;-45
2021/06/24 08:46:21;;;;;;;36.15;6.53;;;;;;;33.03;36.72;99652.80;1781216;78;21003;-45
2021/06/24 08:48:48;;;;;;;31.62;7.78;;;;;;;33.06;36.86;99646.96;1812675;77;21053;-46
2021/06/24 08:51:15;;;;;;;35.98;8.85;;;;;;;33.11;37.01;99654.86;1811705;77;21901;-43
2021/06/24 08:53:46;;;;;;;29.35;8.75;;;;;;;33.16;37.00;99654.84;1799067;78;22439;-54
2021/06/24 08:56:16;;;;;;;30.40;8.33;;;;;;;33.19;36.82;99651.20;1813692;78;21350;-44
2021/06/24 08:58:45;;;;;;;35.35;8.60;;;;;;;33.23;36.93;99655.20;1809316;78;21058;-52
2021/06/24 09:01:13;;;;;;;31.97;8.03;;;;;;;33.27;36.89;99648.33;1808354;77;21059;-47
2021/06/24 09:03:42;;;;;;;30.62;7.85;;;;;;;33.28;36.92;99647.27;1810169;77;20976;-51
2021/06/24 09:06:09;;;;;;;25.88;6.65;;;;;;;33.30;36.84;99643.84;1798029;77;21104;-45
2021/06/24 09:08:46;;;;;;;29.80;7.42;;;;;;;33.31;36.69;99645.52;1805736;78;20942;-46
2021/06/24 09:11:25;;;;;;;32.50;7.28;;;;;;;33.33;36.37;99642.06;1794287;77;21497;-47
2021/06/24 09:14:10;;;;;;;32.25;6.28;;;;;;;33.35;36.04;99641.86;1780948;77;20984;-44
2021/06/24 09:16:41;;;;;;;26.93;5.85;;;;;;;33.32;35.56;99640.39;1790305;78;21513;-47
2021/06/24 09:19:23;;;;;;;31.27;6.17;;;;;;;33.30;35.66;99633.44;1764351;78;21186;-45
2021/06/24 09:22:00;;;;;;;25.50;5.92;;;;;;;33.27;35.88;99637.42;1739854;78;21128;-46
2021/06/24 09:24:34;;;;;;;26.23;5.40;;;;;;;33.23;36.05;99637.48;1796966;77;21110;-44
2021/06/24 09:27:04;;;;;;;22.95;5.62;;;;;;;33.21;36.16;99638.20;1810156;77;21294;-42
2021/06/24 09:29:33;;;;;;;26.30;5.40;;;;;;;33.19;36.35;99636.70;1795797;77;21389;-44
2021/06/24 09:32:01;;;;;;;28.52;4.92;;;;;;;33.14;36.42;99639.48;1813004;77;21135;-44
2021/06/24 09:34:29;;;;;;;26.23;5.00;;;;;;;33.11;36.51;99638.50;1777682;78;21527;-42
2021/06/24 09:37:00;;;;;;;36.40;8.13;;;;;;;33.10;36.68;99635.97;1806770;78;21934;-49
2021/06/24 09:39:37;;;;;;;29.40;6.80;;;;;;;33.08;36.93;99633.97;1812493;77;21512;-58
2021/06/24 09:42:08;;;;;;;27.58;6.72;;;;;;;33.06;37.13;99632.80;1765031;79;21034;-56
2021/06/24 09:44:45;;;;;;;31.75;7.80;;;;;;;33.01;37.22;99633.91;1749212;79;21094;-56
2021/06/24 09:47:30;;;;;;;36.73;7.87;;;;;;;32.93;37.53;99625.38;1746113;80;20988;-56
2021/06/24 09:50:06;;;;;;;36.75;7.08;;;;;;;32.89;37.78;99624.59;1688757;83;21053;-51
2021/06/24 09:52:34;;;;;;;27.52;6.17;;;;;;;32.87;37.92;99626.14;1739117;80;21048;-52
2021/06/24 09:55:13;;;;;;;24.70;5.97;;;;;;;32.81;37.92;99627.45;1747407;80;21324;-51
2021/06/24 09:57:40;;;;;;;26.68;6.37;;;;;;;32.76;38.00;99632.11;1772342;80;21070;-48
2021/06/24 10:00:25;;;;;;;24.90;5.90;;;;;;;32.71;38.11;99626.41;1764251;79;20974;-51
2021/06/24 10:03:08;;;;;;;24.52;6.33;;;;;;;32.70;38.30;99626.93;1747548;80;21596;-51
2021/06/24 10:05:36;;;;;;;30.77;5.90;;;;;;;32.73;38.35;99621.59;1755098;79;21030;-49
2021/06/24 10:08:04;;;;;;;26.37;6.53;;;;;;;32.76;38.45;99620.69;1748907;79;21529;-46
2021/06/24 10:10:33;;;;;;;28.62;5.22;;;;;;;32.79;38.54;99611.29;1724776;80;21546;-51
2021/06/24 10:13:00;;;;;;;24.57;5.33;;;;;;;32.84;38.67;99618.36;1758962;79;21649;-51
2021/06/24 10:15:28;;;;;;;27.15;5.40;;;;;;;32.87;38.65;99616.61;1767866;79;21466;-49
2021/06/24 10:17:57;;;;;;;23.90;5.85;;;;;;;32.89;38.60;99614.52;1738013;81;21321;-51
2021/06/24 10:20:27;;;;;;;23.35;5.20;;;;;;;32.92;38.63;99607.32;1750827;79;21119;-52
2021/06/24 10:23:08;;;;;;;28.73;5.22;;;;;;;32.95;38.62;99610.16;1745156;80;21818;-51
2021/06/24 10:25:38;;;;;;;31.42;5.55;;;;;;;33.00;38.53;99598.67;1754594;80;21123;-52
2021/06/24 10:28:05;;;;;;;23.77;5.42;;;;;;;33.03;38.45;99607.83;1745600;80;21017;-49
2021/06/24 10:30:39;;;;;;;21.30;4.80;;;;;;;33.04;38.34;99603.54;1701248;82;21075;-50
2021/06/24 10:33:11;;;;;;;23.15;5.50;;;;;;;33.06;38.29;99596.53;1710040;82;22208;-51
2021/06/24 10:35:47;;;;;;;17.48;5.03;;;;;;;33.10;38.24;99600.53;1748112;79;21092;-50
2021/06/24 10:38:13;;;;;;;22.98;4.33;;;;;;;33.12;38.07;99599.31;1739154;79;21011;-50
2021/06/24 10:40:43;;;;;;;18.92;4.85;;;;;;;33.14;38.01;99593.66;1722345;81;21195;-50
2021/06/24 10:43:15;;;;;;;27.25;4.87;;;;;;;33.16;37.91;99597.59;1763817;79;21477;-48
2021/06/24 10:45:45;;;;;;;25.30;5.20;;;;;;;33.18;37.74;99592.24;1778354;77;21037;-51
2021/06/24 10:48:29;;;;;;;16.32;4.30;;;;;;;33.21;37.49;99589.13;1787902;78;21132;-47
2021/06/24 10:51:06;;;;;;;18.98;4.00;;;;;;;33.23;37.28;99590.30;1796916;78;21866;-52
2021/06/24 10:53:51;;;;;;;19.85;4.20;;;;;;;33.26;36.99;99592.09;1786144;78;21021;-53
2021/06/24 10:56:25;;;;;;;16.70;3.60;;;;;;;33.28;36.52;99588.64;1769083;78;21429;-49
2021/06/24 10:58:53;;;;;;;17.23;2.85;;;;;;;33.31;36.24;99590.14;1758567;78;21052;-52
2021/06/24 11:01:41;;;;;;;15.15;3.37;;;;;;;33.31;35.54;99589.61;1760547;79;21417;-51
2021/06/24 11:04:26;;;;;;;16.82;3.12;;;;;;;33.33;35.16;99584.80;1769851;79;21529;-52
2021/06/24 11:06:53;;;;;;;12.28;3.40;;;;;;;33.36;35.04;99585.45;1764960;80;21498;-51
2021/06/24 11:09:23;;;;;;;14.95;3.08;;;;;;;33.37;34.75;99572.95;1778240;78;21205;-52
2021/06/24 11:11:51;;;;;;;16.97;2.75;;;;;;;33.38;34.50;99574.66;1784443;79;21011;-52
2021/06/24 11:14:41;;;;;;;17.20;3.67;;;;;;;33.40;34.20;99571.20;1770723;79;21132;-50
2021/06/24 11:17:42;;;;;;;16.00;2.90;;;;;;;33.43;34.19;99575.42;1764142;79;21042;-52
2021/06/24 11:20:20;;;;;;;12.80;3.15;;;;;;;33.43;34.22;99570.80;1782130;79;21067;-51
2021/06/24 11:22:51;;;;;;;17.67;3.70;;;;;;;33.46;34.25;99575.03;1801779;79;21064;-52
2021/06/24 11:25:18;;;;;;;18.65;2.90;;;;;;;33.47;33.96;99568.52;1798213;79;21606;-49
2021/06/24 11:27:45;;;;;;;15.38;2.75;;;;;;;33.48;33.98;99560.66;1795979;78;21125;-51
2021/06/24 11:30:15;;;;;;;15.35;2.75;;;;;;;33.50;34.01;99565.39;1797418;78;21486;-52
2021/06/24 11:32:49;;;;;;;16.15;2.47;;;;;;;33.52;33.53;99552.38;1799860;79;21031;-48
2021/06/24 11:35:31;;;;;;;13.70;2.40;;;;;;;33.54;33.02;99553.55;1789566;78;21546;-51
2021/06/24 11:37:44;;;;;;;6.75;2.20;;;;;;;33.56;32.86;99553.68;1781279;78;21100;-51